createdAt,value
2023-04-15T00:00:35.687Z,3.9315
2023-04-15T00:01:36.756Z,3.8102
2023-04-15T00:02:37.890Z,3.7477
2023-04-15T00:03:39.123Z,3.8766
2023-04-15T00:04:39.857Z,3.9696
2023-04-15T00:05:40.935Z,3.8248
2023-04-15T00:06:41.934Z,3.9692
2023-04-15T00:07:43.720Z,4.0367
2023-04-15T00:08:43.875Z,3.8996
2023-04-15T00:09:44.952Z,4.1703
2023-04-15T00:10:46.017Z,4.1715
2023-04-15T00:11:47.029Z,4.0792
2023-04-15T00:12:48.059Z,4.0622
2023-04-15T00:13:49.104Z,4.0844
2023-04-15T00:14:50.185Z,4.2416
2023-04-15T00:15:51.240Z,4.0143
2023-04-15T00:16:52.340Z,3.7383
2023-04-15T00:17:53.286Z,4.3144
2023-04-15T00:18:54.343Z,4.2349
2023-04-15T00:19:55.358Z,4.1916
2023-04-15T00:20:56.464Z,3.8940
2023-04-15T00:21:57.453Z,3.8961
2023-04-15T00:22:58.506Z,4.0454
2023-04-15T00:23:59.533Z,4.3595
2023-04-15T00:25:00.577Z,4.1521
2023-04-15T00:26:01.667Z,4.3680
2023-04-15T00:27:02.698Z,3.9963
2023-04-15T00:28:03.700Z,3.7715
2023-04-15T00:29:04.749Z,4.4688
2023-04-15T00:30:05.783Z,4.0707
2023-04-15T00:31:06.884Z,3.9027
2023-04-15T00:32:07.900Z,3.8886
2023-04-15T00:33:08.923Z,3.9394
2023-04-15T00:34:09.988Z,3.8201
2023-04-15T00:35:11.048Z,4.3073
2023-04-15T00:36:12.071Z,4.0744
2023-04-15T00:37:13.081Z,3.9314
2023-04-15T00:38:14.157Z,3.7140
2023-04-15T00:39:15.239Z,4.3114
2023-04-15T00:40:16.230Z,3.8288
2023-04-15T00:41:17.326Z,4.0450
2023-04-15T00:42:18.364Z,4.0086
2023-04-15T00:43:19.365Z,3.7704
2023-04-15T00:44:20.399Z,4.0266
2023-04-15T00:45:21.434Z,4.0940
2023-04-15T00:46:22.542Z,4.2132
2023-04-15T00:47:23.621Z,4.0640
2023-04-15T00:48:24.568Z,3.9342
2023-04-15T00:49:25.624Z,3.7427
2023-04-15T00:50:26.693Z,3.7140
2023-04-15T00:51:27.708Z,3.5955
2023-04-15T00:52:28.825Z,4.0434
2023-04-15T00:53:29.834Z,3.8174
2023-04-15T00:54:30.843Z,3.4667
2023-04-15T00:55:31.925Z,3.6725
2023-04-15T00:56:32.987Z,3.7480
2023-04-15T00:57:34.111Z,3.5316
2023-04-15T00:58:35.143Z,3.7234
2023-04-15T00:59:36.195Z,3.7301
2023-04-15T01:00:37.230Z,3.6376
2023-04-15T01:01:38.322Z,3.5900
2023-04-15T01:02:39.598Z,3.5629
2023-04-15T01:03:40.467Z,3.7223
2023-04-15T01:04:41.393Z,3.6755
2023-04-15T01:05:42.442Z,3.5365
2023-04-15T01:06:43.534Z,3.6717
2023-04-15T01:07:44.596Z,3.5014
2023-04-15T01:08:45.626Z,3.1564
2023-04-15T01:09:46.594Z,3.8249
2023-04-15T01:10:47.666Z,3.5602
2023-04-15T01:11:48.724Z,3.4753
2023-04-15T01:12:49.733Z,3.8937
2023-04-15T01:13:50.828Z,3.6698
2023-04-15T01:14:51.833Z,3.6527
2023-04-15T01:15:52.845Z,3.7152
2023-04-15T01:16:53.860Z,3.5688
2023-04-15T01:17:55.029Z,3.6220
2023-04-15T01:18:55.947Z,3.4798
2023-04-15T01:19:57.015Z,3.5602
2023-04-15T01:20:58.031Z,3.6320
2023-04-15T01:21:59.072Z,3.4581
2023-04-15T01:23:00.263Z,3.2596
2023-04-15T01:24:01.170Z,3.6665
2023-04-15T01:25:02.202Z,3.7875
2023-04-15T01:26:03.272Z,3.4230
2023-04-15T01:27:04.278Z,3.6321
2023-04-15T01:28:05.383Z,3.6289
2023-04-15T01:29:06.344Z,3.7800
2023-04-15T01:30:07.453Z,3.4689
2023-04-15T01:31:08.518Z,3.6211
2023-04-15T01:32:09.472Z,3.6681
2023-04-15T01:33:10.531Z,3.6656
2023-04-15T01:34:11.555Z,3.7903
2023-04-15T01:35:12.608Z,3.0896
2023-04-15T01:36:13.613Z,3.2272
2023-04-15T01:37:14.650Z,3.7509
2023-04-15T01:38:15.730Z,3.4337
2023-04-15T01:39:16.829Z,3.3311
2023-04-15T01:40:17.778Z,3.5786
2023-04-15T01:41:18.833Z,3.2920
2023-04-15T01:42:19.850Z,3.5515
2023-04-15T01:43:20.926Z,3.4688
2023-04-15T01:44:21.932Z,3.5655
2023-04-15T01:45:22.951Z,3.1769
2023-04-15T01:46:24.021Z,3.0202
2023-04-15T01:47:25.072Z,2.8267
2023-04-15T01:48:26.145Z,3.0353
2023-04-15T01:49:27.127Z,3.4606
2023-04-15T01:50:28.090Z,3.2255
2023-04-15T01:51:29.144Z,3.0310
2023-04-15T01:52:30.171Z,3.1093
2023-04-15T01:53:31.226Z,2.7610
2023-04-15T01:54:32.262Z,2.9235
2023-04-15T01:55:33.318Z,2.7566
2023-04-15T01:56:34.351Z,2.7606
2023-04-15T01:57:35.372Z,2.8563
2023-04-15T01:58:36.472Z,2.8922
2023-04-15T01:59:37.473Z,2.9803
2023-04-15T02:00:38.539Z,3.1678
2023-04-15T02:01:39.573Z,3.0335
2023-04-15T02:02:40.746Z,3.1228
2023-04-15T02:03:41.781Z,2.8646
2023-04-15T02:04:42.685Z,3.0337
2023-04-15T02:05:43.702Z,3.1168
2023-04-15T02:06:44.731Z,3.0914
2023-04-15T02:07:45.769Z,2.9965
2023-04-15T02:08:46.869Z,3.0724
2023-04-15T02:09:47.876Z,3.0684
2023-04-15T02:10:48.915Z,3.0412
2023-04-15T02:11:49.977Z,3.0509
2023-04-15T02:12:51.014Z,2.9260
2023-04-15T02:13:52.096Z,2.7757
2023-04-15T02:14:53.102Z,3.2207
2023-04-15T02:15:54.140Z,3.2398
2023-04-15T02:16:55.242Z,3.0900
2023-04-15T02:17:56.228Z,2.8916
2023-04-15T02:18:57.283Z,3.0783
2023-04-15T02:19:58.280Z,3.2287
2023-04-15T02:20:59.393Z,3.0912
2023-04-15T02:22:00.372Z,3.2277
2023-04-15T02:23:01.424Z,2.9916
2023-04-15T02:24:02.500Z,2.9020
2023-04-15T02:25:03.531Z,3.0011
2023-04-15T02:26:04.539Z,3.1961
2023-04-15T02:27:05.556Z,2.7766
2023-04-15T02:28:06.622Z,2.8208
2023-04-15T02:29:07.661Z,3.2798
2023-04-15T02:30:08.683Z,3.0442
2023-04-15T02:31:09.775Z,3.0870
2023-04-15T02:32:10.914Z,3.2831
2023-04-15T02:33:11.838Z,3.4234
2023-04-15T02:34:12.898Z,3.3621
2023-04-15T02:35:13.996Z,3.0826
2023-04-15T02:36:14.961Z,3.0239
2023-04-15T02:37:16.017Z,3.1764
2023-04-15T02:38:17.089Z,3.0981
2023-04-15T02:39:18.085Z,2.9177
2023-04-15T02:40:19.239Z,3.1679
2023-04-15T02:41:20.321Z,2.8434
2023-04-15T02:42:21.314Z,2.7733
2023-04-15T02:43:22.356Z,2.5982
2023-04-15T02:44:23.378Z,2.4883
2023-04-15T02:45:24.505Z,2.4908
2023-04-15T02:46:25.588Z,2.4172
2023-04-15T02:47:26.593Z,2.1470
2023-04-15T02:48:27.557Z,1.9747
2023-04-15T02:49:28.752Z,2.1392
2023-04-15T02:50:30.071Z,2.0367
2023-04-15T02:51:30.870Z,2.1154
2023-04-15T02:52:31.754Z,2.0382
2023-04-15T02:53:32.831Z,2.2723
2023-04-15T02:54:33.840Z,1.9890
2023-04-15T02:55:34.916Z,1.7735
2023-04-15T02:56:35.912Z,1.9086
2023-04-15T02:57:36.989Z,1.9179
2023-04-15T02:58:37.995Z,1.8482
2023-04-15T02:59:39.037Z,1.7629
2023-04-15T03:00:40.151Z,1.8630
2023-04-15T03:01:41.088Z,1.6927
2023-04-15T03:02:42.461Z,1.9606
2023-04-15T03:03:43.380Z,1.8258
2023-04-15T03:04:44.350Z,1.7178
2023-04-15T03:05:45.410Z,1.9848
2023-04-15T03:06:46.369Z,1.6294
2023-04-15T03:07:47.424Z,2.0330
2023-04-15T03:08:48.549Z,1.8403
2023-04-15T03:09:49.515Z,1.8827
2023-04-15T03:10:50.572Z,1.8965
2023-04-15T03:11:51.573Z,1.8643
2023-04-15T03:12:52.619Z,1.7955
2023-04-15T03:13:53.689Z,1.7453
2023-04-15T03:14:54.718Z,1.5420
2023-04-15T03:15:55.887Z,1.8473
2023-04-15T03:16:56.830Z,1.8858
2023-04-15T03:17:57.930Z,1.8230
2023-04-15T03:18:59.020Z,1.9450
2023-04-15T03:19:59.964Z,1.8146
2023-04-15T03:21:01.027Z,1.9700
2023-04-15T03:22:02.016Z,1.9651
2023-04-15T03:23:03.058Z,1.8532
2023-04-15T03:24:04.200Z,1.6445
2023-04-15T03:25:05.145Z,1.7124
2023-04-15T03:26:06.238Z,1.6719
2023-04-15T03:27:07.294Z,1.6287
2023-04-15T03:28:08.276Z,1.5664
2023-04-15T03:29:09.318Z,1.7961
2023-04-15T03:30:10.334Z,1.6879
2023-04-15T03:31:11.458Z,1.8243
2023-04-15T03:32:12.508Z,1.6647
2023-04-15T03:33:13.400Z,1.5240
2023-04-15T03:34:14.441Z,1.6472
2023-04-15T03:35:15.491Z,1.6481
2023-04-15T03:36:16.569Z,1.6969
2023-04-15T03:37:17.574Z,1.6159
2023-04-15T03:38:18.597Z,1.6297
2023-04-15T03:39:19.651Z,1.6434
2023-04-15T03:40:20.685Z,1.5491
2023-04-15T03:41:21.756Z,1.5185
2023-04-15T03:42:22.766Z,1.6361
2023-04-15T03:43:23.778Z,1.5984
2023-04-15T03:44:24.854Z,1.6722
2023-04-15T03:45:25.855Z,1.3825
2023-04-15T03:46:26.962Z,1.6752
2023-04-15T03:47:27.971Z,1.6852
2023-04-15T03:48:29.005Z,1.6077
2023-04-15T03:49:30.025Z,1.5696
2023-04-15T03:50:31.054Z,1.5733
2023-04-15T03:51:32.126Z,1.5394
2023-04-15T03:52:33.151Z,1.5700
2023-04-15T03:53:34.187Z,1.6706
2023-04-15T03:54:35.238Z,1.7219
2023-04-15T03:55:36.297Z,1.5406
2023-04-15T03:56:37.379Z,1.4346
2023-04-15T03:57:38.390Z,1.3544
2023-04-15T03:58:39.433Z,1.4924
2023-04-15T03:59:40.476Z,1.7702
2023-04-15T04:00:41.575Z,1.5378
2023-04-15T04:01:42.688Z,1.4595
2023-04-15T04:02:43.726Z,1.5512
2023-04-15T04:03:44.813Z,1.5582
2023-04-15T04:04:45.714Z,1.5338
2023-04-15T04:05:46.754Z,1.6678
2023-04-15T04:06:47.828Z,1.6971
2023-04-15T04:07:48.821Z,1.5151
2023-04-15T04:08:49.873Z,1.6142
2023-04-15T04:09:50.934Z,1.4924
2023-04-15T04:10:51.953Z,1.5176
2023-04-15T04:11:53.033Z,1.6812
2023-04-15T04:12:54.039Z,1.5852
2023-04-15T04:13:55.133Z,1.7013
2023-04-15T04:14:56.170Z,1.5782
2023-04-15T04:15:57.334Z,1.6384
2023-04-15T04:16:58.335Z,1.7013
2023-04-15T04:17:59.326Z,1.5014
2023-04-15T04:19:00.612Z,1.4810
2023-04-15T04:20:01.381Z,1.9551
2023-04-15T04:21:02.390Z,1.5911
2023-04-15T04:22:03.516Z,1.6650
2023-04-15T04:23:04.467Z,1.4813
2023-04-15T04:24:05.672Z,1.7070
2023-04-15T04:25:06.705Z,1.5400
2023-04-15T04:26:07.772Z,1.5010
2023-04-15T04:27:08.829Z,1.4116
2023-04-15T04:28:09.837Z,1.5332
2023-04-15T04:29:10.869Z,1.6324
2023-04-15T04:30:11.933Z,1.6485
2023-04-15T04:31:13.054Z,1.4546
2023-04-15T04:32:14.123Z,1.5119
2023-04-15T04:33:15.075Z,1.3982
2023-04-15T04:34:16.074Z,1.6015
2023-04-15T04:35:17.153Z,1.5368
2023-04-15T04:36:18.375Z,1.3606
2023-04-15T04:37:19.301Z,1.4615
2023-04-15T04:38:20.281Z,1.3936
2023-04-15T04:39:21.389Z,1.3815
2023-04-15T04:40:22.371Z,1.2556
2023-04-15T04:41:23.374Z,1.4531
2023-04-15T04:42:24.545Z,1.3713
2023-04-15T04:43:25.487Z,1.3917
2023-04-15T04:44:26.649Z,1.3826
2023-04-15T04:45:27.557Z,1.1729
2023-04-15T04:46:28.634Z,1.0959
2023-04-15T04:47:29.782Z,1.1784
2023-04-15T04:48:30.705Z,1.1613
2023-04-15T04:49:31.722Z,1.1954
2023-04-15T04:50:32.771Z,1.2093
2023-04-15T04:51:33.828Z,1.1843
2023-04-15T04:52:34.975Z,1.2369
2023-04-15T04:53:35.931Z,1.1880
2023-04-15T04:54:36.972Z,1.1411
2023-04-15T04:55:38.028Z,1.1915
2023-04-15T04:56:39.070Z,1.1076
2023-04-15T04:57:40.168Z,1.1046
2023-04-15T04:58:41.108Z,1.1560
2023-04-15T04:59:42.209Z,1.2284
2023-04-15T05:00:43.199Z,1.2443
2023-04-15T05:01:44.474Z,1.2632
2023-04-15T05:02:45.515Z,1.1046
2023-04-15T05:03:46.422Z,1.1480
2023-04-15T05:04:47.365Z,1.0991
2023-04-15T05:05:48.508Z,1.2890
2023-04-15T05:06:49.533Z,1.4017
2023-04-15T05:07:50.547Z,1.1403
2023-04-15T05:08:51.537Z,1.2198
2023-04-15T05:09:52.663Z,1.0960
2023-04-15T05:10:53.616Z,1.1281
2023-04-15T05:11:54.723Z,1.2642
2023-04-15T05:12:55.805Z,1.2769
2023-04-15T05:13:56.794Z,1.1545
2023-04-15T05:14:57.829Z,1.0561
2023-04-15T05:15:58.924Z,1.3631
2023-04-15T05:17:00.454Z,1.1283
2023-04-15T05:18:00.934Z,1.2983
2023-04-15T05:19:02.179Z,1.1105
2023-04-15T05:20:02.967Z,1.2619
2023-04-15T05:21:04.035Z,1.3174
2023-04-15T05:22:05.059Z,1.3608
2023-04-15T05:23:06.159Z,1.2920
2023-04-15T05:24:07.137Z,1.2438
2023-04-15T05:25:08.190Z,1.0879
2023-04-15T05:26:09.240Z,1.1625
2023-04-15T05:27:10.261Z,1.2362
2023-04-15T05:28:11.372Z,1.2281
2023-04-15T05:29:12.349Z,1.1758
2023-04-15T05:30:13.842Z,1.3111
2023-04-15T05:31:14.513Z,1.2957
2023-04-15T05:32:15.491Z,1.3857
2023-04-15T05:33:16.603Z,1.1409
2023-04-15T05:34:17.562Z,1.3491
2023-04-15T05:35:18.640Z,1.4669
2023-04-15T05:36:19.659Z,1.1693
2023-04-15T05:37:20.700Z,1.2481
2023-04-15T05:38:21.774Z,1.4498
2023-04-15T05:39:22.775Z,1.2979
2023-04-15T05:40:23.840Z,1.2071
2023-04-15T05:41:24.878Z,1.0716
2023-04-15T05:42:25.916Z,1.3743
2023-04-15T05:43:26.993Z,1.2537
2023-04-15T05:44:28.054Z,1.3045
2023-04-15T05:45:29.059Z,1.3551
2023-04-15T05:46:30.144Z,1.5173
2023-04-15T05:47:31.147Z,1.3965
2023-04-15T05:48:32.192Z,1.4320
2023-04-15T05:49:33.185Z,1.3427
2023-04-15T05:50:34.260Z,1.1901
2023-04-15T05:51:35.297Z,1.2903
2023-04-15T05:52:36.323Z,1.3375
2023-04-15T05:53:37.452Z,1.2258
2023-04-15T05:54:38.971Z,1.3996
2023-04-15T05:55:39.478Z,1.4049
2023-04-15T05:56:40.492Z,1.3606
2023-04-15T05:57:41.574Z,1.4550
2023-04-15T05:58:42.617Z,1.2832
2023-04-15T05:59:43.614Z,1.2845
2023-04-15T06:00:44.678Z,1.3541
2023-04-15T06:01:45.710Z,1.3468
2023-04-15T06:02:46.961Z,1.3739
2023-04-15T06:03:47.938Z,1.3954
2023-04-15T06:04:48.846Z,1.2650
2023-04-15T06:05:49.894Z,1.4078
2023-04-15T06:06:50.918Z,1.1012
2023-04-15T06:07:52.017Z,1.4121
2023-04-15T06:08:53.112Z,1.4414
2023-04-15T06:09:54.129Z,1.1769
2023-04-15T06:10:55.198Z,1.1682
2023-04-15T06:11:56.220Z,1.2549
2023-04-15T06:12:57.192Z,1.3765
2023-04-15T06:13:58.352Z,1.7114
2023-04-15T06:15:00.235Z,2.0929
2023-04-15T06:16:00.429Z,2.5098
2023-04-15T06:17:01.436Z,2.2332
2023-04-15T06:18:02.540Z,1.9933
2023-04-15T06:19:03.510Z,2.0998
2023-04-15T06:20:04.468Z,1.7576
2023-04-15T06:21:05.509Z,1.9435
2023-04-15T06:22:06.560Z,1.8262
2023-04-15T06:23:07.554Z,1.7814
2023-04-15T06:24:08.704Z,1.6229
2023-04-15T06:25:09.626Z,1.3037
2023-04-15T06:26:10.747Z,1.5174
2023-04-15T06:27:11.723Z,1.4456
2023-04-15T06:28:12.752Z,1.3127
2023-04-15T06:29:13.850Z,1.4115
2023-04-15T06:30:14.827Z,1.5624
2023-04-15T06:31:15.863Z,1.3707
2023-04-15T06:32:16.949Z,1.5127
2023-04-15T06:33:17.989Z,1.4354
2023-04-15T06:34:19.014Z,1.4010
2023-04-15T06:35:20.054Z,1.2934
2023-04-15T06:36:21.076Z,1.4863
2023-04-15T06:37:22.131Z,1.2984
2023-04-15T06:38:23.151Z,1.7334
2023-04-15T06:39:24.267Z,1.4237
2023-04-15T06:40:25.303Z,1.2581
2023-04-15T06:41:26.269Z,1.5182
2023-04-15T06:42:27.307Z,1.5157
2023-04-15T06:43:28.333Z,1.4246
2023-04-15T06:44:29.403Z,1.6755
2023-04-15T06:45:30.511Z,1.4699
2023-04-15T06:46:31.471Z,1.7291
2023-04-15T06:47:32.516Z,1.6537
2023-04-15T06:48:33.510Z,1.5470
2023-04-15T06:49:34.628Z,1.6751
2023-04-15T06:50:35.662Z,1.5535
2023-04-15T06:51:36.664Z,1.8304
2023-04-15T06:52:37.706Z,1.4052
2023-04-15T06:53:38.715Z,1.6996
2023-04-15T06:54:39.818Z,1.7369
2023-04-15T06:55:40.830Z,1.5780
2023-04-15T06:56:41.813Z,1.8017
2023-04-15T06:57:42.875Z,1.8078
2023-04-15T06:58:43.947Z,1.7580
2023-04-15T06:59:44.902Z,1.6941
2023-04-15T07:00:45.957Z,1.8532
2023-04-15T07:01:46.956Z,1.6552
2023-04-15T07:02:48.056Z,1.9051
2023-04-15T07:03:49.128Z,1.8980
2023-04-15T07:04:50.149Z,2.0676
2023-04-15T07:05:51.135Z,1.8786
2023-04-15T07:06:52.223Z,2.1508
2023-04-15T07:07:53.253Z,1.9480
2023-04-15T07:08:54.288Z,1.9417
2023-04-15T07:09:55.343Z,1.9750
2023-04-15T07:10:56.359Z,2.0534
2023-04-15T07:11:57.397Z,1.8803
2023-04-15T07:12:58.401Z,2.0214
2023-04-15T07:13:59.475Z,2.0122
2023-04-15T07:15:00.516Z,1.7760
2023-04-15T07:16:01.650Z,2.0430
2023-04-15T07:17:02.608Z,1.9354
2023-04-15T07:18:03.621Z,1.8584
2023-04-15T07:19:04.817Z,2.1238
2023-04-15T07:20:05.684Z,2.4012
2023-04-15T07:21:06.710Z,2.1573
2023-04-15T07:22:07.777Z,2.0148
2023-04-15T07:23:08.982Z,2.3918
2023-04-15T07:24:09.799Z,2.4103
2023-04-15T07:25:11.183Z,2.5945
2023-04-15T07:26:11.933Z,2.0674
2023-04-15T07:27:12.944Z,2.3813
2023-04-15T07:28:13.973Z,2.0736
2023-04-15T07:29:15.020Z,2.4218
2023-04-15T07:30:16.062Z,2.3526
2023-04-15T07:31:17.184Z,2.6579
2023-04-15T07:32:18.128Z,2.4564
2023-04-15T07:33:19.171Z,2.3895
2023-04-15T07:34:20.399Z,2.3861
2023-04-15T07:35:21.233Z,2.7387
2023-04-15T07:36:22.323Z,2.5018
2023-04-15T07:37:23.332Z,2.7928
2023-04-15T07:38:24.375Z,2.7517
2023-04-15T07:39:25.411Z,2.7330
2023-04-15T07:40:26.493Z,2.8985
2023-04-15T07:41:27.572Z,2.7389
2023-04-15T07:42:28.537Z,2.8990
2023-04-15T07:43:29.595Z,3.0539
2023-04-15T07:44:30.619Z,2.9410
2023-04-15T07:45:31.680Z,2.7626
2023-04-15T07:46:32.774Z,2.7951
2023-04-15T07:47:33.787Z,2.7695
2023-04-15T07:48:35.610Z,2.8863
2023-04-15T07:49:35.916Z,3.0379
2023-04-15T07:50:36.991Z,2.6474
2023-04-15T07:51:38.069Z,2.9106
2023-04-15T07:52:39.057Z,2.6716
2023-04-15T07:53:40.118Z,2.7144
2023-04-15T07:54:41.138Z,2.8175
2023-04-15T07:55:42.184Z,2.7562
2023-04-15T07:56:43.280Z,2.8137
2023-04-15T07:57:44.214Z,2.6779
2023-04-15T07:58:45.260Z,2.8751
2023-04-15T07:59:46.299Z,2.5631
2023-04-15T08:00:47.392Z,2.6490
2023-04-15T08:01:48.477Z,3.0876
2023-04-15T08:02:49.553Z,2.9093
2023-04-15T08:03:50.671Z,2.8597
2023-04-15T08:04:51.704Z,2.6044
2023-04-15T08:05:52.619Z,2.6388
2023-04-15T08:06:53.636Z,2.9913
2023-04-15T08:07:54.641Z,3.3170
2023-04-15T08:08:55.747Z,3.0530
2023-04-15T08:09:56.680Z,3.0335
2023-04-15T08:10:57.766Z,3.0998
2023-04-15T08:11:58.837Z,3.1397
2023-04-15T08:12:59.899Z,2.9843
2023-04-15T08:14:00.835Z,2.9433
2023-04-15T08:15:01.924Z,2.7423
2023-04-15T08:16:03.005Z,3.2970
2023-04-15T08:17:04.038Z,3.1651
2023-04-15T08:18:05.020Z,3.1816
2023-04-15T08:19:06.046Z,2.9219
2023-04-15T08:20:07.082Z,2.8022
2023-04-15T08:21:08.159Z,2.6649
2023-04-15T08:22:15.371Z,2.7374
2023-04-15T08:23:10.166Z,2.7684
2023-04-15T08:24:11.261Z,2.8981
2023-04-15T08:25:12.246Z,2.9265
2023-04-15T08:26:13.388Z,2.7981
2023-04-15T08:27:14.433Z,2.7598
2023-04-15T08:28:15.410Z,2.8447
2023-04-15T08:29:16.437Z,3.1083
2023-04-15T08:30:17.479Z,2.9674
2023-04-15T08:31:18.557Z,2.7704
2023-04-15T08:32:19.636Z,2.8006
2023-04-15T08:33:20.593Z,2.8834
2023-04-15T08:34:21.626Z,2.7473
2023-04-15T08:35:22.806Z,2.8064
2023-04-15T08:36:23.736Z,2.7604
2023-04-15T08:37:24.668Z,2.7122
2023-04-15T08:38:25.710Z,2.6864
2023-04-15T08:39:26.732Z,2.4876
2023-04-15T08:40:27.795Z,2.6907
2023-04-15T08:41:28.814Z,2.7660
2023-04-15T08:42:29.915Z,2.5774
2023-04-15T08:43:30.892Z,2.8573
2023-04-15T08:44:31.972Z,2.6605
2023-04-15T08:45:32.998Z,2.8021
2023-04-15T08:46:34.032Z,2.5184
2023-04-15T08:47:35.073Z,2.7030
2023-04-15T08:48:36.057Z,2.4039
2023-04-15T08:49:37.100Z,2.4862
2023-04-15T08:50:38.142Z,2.4908
2023-04-15T08:51:39.187Z,2.7699
2023-04-15T08:52:40.261Z,2.6131
2023-04-15T08:53:41.266Z,2.6417
2023-04-15T08:54:42.308Z,2.7543
2023-04-15T08:55:43.309Z,2.4564
2023-04-15T08:56:44.414Z,2.5755
2023-04-15T08:57:45.450Z,2.5909
2023-04-15T08:58:46.465Z,2.6247
2023-04-15T08:59:47.528Z,2.4920
2023-04-15T09:00:48.650Z,2.6286
2023-04-15T09:01:49.628Z,2.9715
2023-04-15T09:02:50.730Z,3.2132
2023-04-15T09:03:51.777Z,3.2675
2023-04-15T09:04:52.921Z,3.4940
2023-04-15T09:05:53.762Z,3.3900
2023-04-15T09:06:54.782Z,3.0512
2023-04-15T09:07:55.935Z,3.0346
2023-04-15T09:08:56.861Z,3.3651
2023-04-15T09:09:57.923Z,3.2941
2023-04-15T09:10:58.990Z,3.4151
2023-04-15T09:11:59.998Z,3.5571
2023-04-15T09:13:01.089Z,2.8872
2023-04-15T09:14:02.080Z,3.4640
2023-04-15T09:15:03.141Z,3.9012
2023-04-15T09:16:04.232Z,3.4801
2023-04-15T09:17:05.295Z,3.3447
2023-04-15T09:18:06.264Z,3.3846
2023-04-15T09:19:07.265Z,3.1566
2023-04-15T09:20:08.300Z,3.2416
2023-04-15T09:21:09.638Z,3.2398
2023-04-15T09:22:10.357Z,3.1838
2023-04-15T09:23:11.484Z,3.3443
2023-04-15T09:24:12.433Z,2.9451
2023-04-15T09:25:13.514Z,3.5469
2023-04-15T09:26:14.510Z,3.4417
2023-04-15T09:27:15.544Z,3.2800
2023-04-15T09:28:16.619Z,3.5689
2023-04-15T09:29:17.622Z,3.8221
2023-04-15T09:30:18.685Z,3.5066
2023-04-15T09:31:19.747Z,3.6315
2023-04-15T09:32:20.712Z,3.4415
2023-04-15T09:33:21.906Z,3.0277
2023-04-15T09:34:22.956Z,3.4414
2023-04-15T09:35:23.929Z,3.1173
2023-04-15T09:36:24.986Z,3.1133
2023-04-15T09:37:32.395Z,2.8499
2023-04-15T09:38:27.117Z,2.9471
2023-04-15T09:39:28.113Z,2.8636
2023-04-15T09:40:29.152Z,3.4680
2023-04-15T09:41:30.199Z,3.0858
2023-04-15T09:42:31.238Z,2.6819
2023-04-15T09:43:32.292Z,2.5333
2023-04-15T09:44:33.314Z,2.7939
2023-04-15T09:45:34.337Z,2.5716
2023-04-15T09:46:35.433Z,2.7455
2023-04-15T09:47:36.492Z,2.6392
2023-04-15T09:48:37.602Z,2.8360
2023-04-15T09:49:38.578Z,2.8987
2023-04-15T09:50:39.562Z,3.0209
2023-04-15T09:51:41.340Z,2.5970
2023-04-15T09:52:41.634Z,2.8568
2023-04-15T09:53:42.710Z,3.0222
2023-04-15T09:54:43.695Z,3.0886
2023-04-15T09:55:44.745Z,3.0593
2023-04-15T09:56:45.806Z,2.6112
2023-04-15T09:57:46.828Z,2.3556
2023-04-15T09:58:47.912Z,2.1064
2023-04-15T09:59:48.873Z,1.8927
2023-04-15T10:00:49.973Z,2.0930
2023-04-15T10:01:51.075Z,1.7081
2023-04-15T10:02:52.056Z,1.8587
2023-04-15T10:03:53.115Z,2.0255
2023-04-15T10:04:54.110Z,2.3397
2023-04-15T10:05:55.163Z,2.6431
2023-04-15T10:06:56.158Z,2.4245
2023-04-15T10:07:57.247Z,2.5963
2023-04-15T10:08:58.253Z,2.7063
2023-04-15T10:09:59.271Z,3.0288
2023-04-15T10:11:00.277Z,2.7815
2023-04-15T10:12:01.324Z,3.1294
2023-04-15T10:13:02.356Z,3.1906
2023-04-15T10:14:03.745Z,2.4068
2023-04-15T10:15:04.423Z,2.4161
2023-04-15T10:16:05.483Z,2.3343
2023-04-15T10:17:06.478Z,2.5605
2023-04-15T10:18:07.766Z,2.3775
2023-04-15T10:19:08.523Z,2.4154
2023-04-15T10:20:09.516Z,2.5392
2023-04-15T10:21:10.543Z,2.5731
2023-04-15T10:22:11.616Z,2.2891
2023-04-15T10:23:13.462Z,2.9069
2023-04-15T10:24:13.696Z,2.9618
2023-04-15T10:25:14.702Z,2.8353
2023-04-15T10:26:15.734Z,2.5782
2023-04-15T10:27:16.788Z,2.3948
2023-04-15T10:28:17.810Z,2.5844
2023-04-15T10:29:18.882Z,2.7195
2023-04-15T10:30:19.899Z,2.3175
2023-04-15T10:31:20.971Z,2.4851
2023-04-15T10:32:21.991Z,2.6149
2023-04-15T10:33:23.006Z,2.3571
2023-04-15T10:34:24.061Z,2.7182
2023-04-15T10:35:25.095Z,2.7569
2023-04-15T10:36:26.108Z,2.3826
2023-04-15T10:37:27.188Z,2.4366
2023-04-15T10:38:28.206Z,2.4168
2023-04-15T10:39:29.279Z,2.1202
2023-04-15T10:40:30.302Z,2.1258
2023-04-15T10:41:31.387Z,2.0702
2023-04-15T10:42:32.385Z,2.3990
2023-04-15T10:43:33.379Z,2.4052
2023-04-15T10:44:34.471Z,2.3576
2023-04-15T10:45:35.505Z,2.4709
2023-04-15T10:46:36.564Z,2.5819
2023-04-15T10:47:37.597Z,2.3535
2023-04-15T10:48:38.610Z,2.4546
2023-04-15T10:49:39.626Z,2.7365
2023-04-15T10:50:40.732Z,2.4275
2023-04-15T10:51:41.756Z,2.7961
2023-04-15T10:52:42.738Z,3.2146
2023-04-15T10:53:43.801Z,3.1867
2023-04-15T10:54:44.806Z,3.0609
2023-04-15T10:55:45.867Z,3.2282
2023-04-15T10:56:46.899Z,3.2321
2023-04-15T10:57:47.934Z,3.3284
2023-04-15T10:58:48.998Z,3.2899
2023-04-15T10:59:50.029Z,3.2460
2023-04-15T11:00:51.068Z,3.4239
2023-04-15T11:01:52.194Z,3.2671
2023-04-15T11:02:53.161Z,3.5973
2023-04-15T11:03:54.325Z,3.1828
2023-04-15T11:04:55.560Z,3.1775
2023-04-15T11:05:56.316Z,3.0511
2023-04-15T11:06:57.303Z,3.3429
2023-04-15T11:07:58.364Z,3.1745
2023-04-15T11:08:59.463Z,3.2608
2023-04-15T11:10:00.434Z,2.9134
2023-04-15T11:11:01.512Z,2.8164
2023-04-15T11:12:02.503Z,2.9496
2023-04-15T11:13:03.552Z,2.7534
2023-04-15T11:14:04.733Z,2.8794
2023-04-15T11:15:05.605Z,3.0927
2023-04-15T11:16:06.748Z,3.3148
2023-04-15T11:17:07.760Z,2.9948
2023-04-15T11:18:08.907Z,2.8449
2023-04-15T11:19:09.883Z,2.7619
2023-04-15T11:20:10.913Z,2.5556
2023-04-15T11:21:12.035Z,2.8079
2023-04-15T11:22:12.949Z,2.6987
2023-04-15T11:23:15.015Z,3.2055
2023-04-15T11:24:15.104Z,3.2952
2023-04-15T11:25:16.075Z,3.2724
2023-04-15T11:26:17.187Z,3.1620
2023-04-15T11:27:18.183Z,3.4333
2023-04-15T11:28:19.181Z,3.6715
2023-04-15T11:29:20.239Z,3.5294
2023-04-15T11:30:21.302Z,3.5268
2023-04-15T11:31:22.461Z,3.6484
2023-04-15T11:32:23.415Z,3.3857
2023-04-15T11:33:24.447Z,3.6170
2023-04-15T11:34:25.449Z,3.4917
2023-04-15T11:35:26.533Z,3.5907
2023-04-15T11:36:27.614Z,3.3225
2023-04-15T11:37:28.592Z,3.6131
2023-04-15T11:38:29.640Z,3.3955
2023-04-15T11:39:30.686Z,3.6020
2023-04-15T11:40:31.761Z,3.8773
2023-04-15T11:41:32.830Z,3.4181
2023-04-15T11:42:48.571Z,3.5610
2023-04-15T11:43:34.853Z,3.4535
2023-04-15T11:44:35.887Z,3.3239
2023-04-15T11:45:37.039Z,3.2384
2023-04-15T11:46:37.882Z,2.8932
2023-04-15T11:47:38.926Z,3.1660
2023-04-15T11:48:39.937Z,2.8512
2023-04-15T11:49:40.982Z,3.0521
2023-04-15T11:50:42.022Z,3.0094
2023-04-15T11:51:43.103Z,3.3022
2023-04-15T11:52:44.102Z,3.1837
2023-04-15T11:53:45.123Z,3.2971
2023-04-15T11:54:46.193Z,2.9471
2023-04-15T11:55:47.220Z,2.8394
2023-04-15T11:56:48.282Z,3.1432
2023-04-15T11:57:49.309Z,3.1434
2023-04-15T11:58:50.329Z,3.0355
2023-04-15T11:59:51.373Z,3.4657
2023-04-15T12:00:52.424Z,3.2753
2023-04-15T12:01:53.483Z,2.9453
2023-04-15T12:02:54.756Z,2.9863
2023-04-15T12:03:55.577Z,2.8242
2023-04-15T12:04:56.624Z,2.9614
2023-04-15T12:05:57.573Z,3.2716
2023-04-15T12:06:58.617Z,3.2544
2023-04-15T12:07:59.650Z,3.2102
2023-04-15T12:09:00.710Z,2.8132
2023-04-15T12:10:01.700Z,2.7841
2023-04-15T12:11:02.746Z,2.9478
2023-04-15T12:12:03.877Z,3.0138
2023-04-15T12:13:04.846Z,3.3141
2023-04-15T12:14:06.163Z,3.1537
2023-04-15T12:15:06.905Z,2.9220
2023-04-15T12:16:07.974Z,2.8190
2023-04-15T12:17:09.034Z,2.8161
2023-04-15T12:18:10.070Z,2.7584
2023-04-15T12:19:11.026Z,2.4383
2023-04-15T12:20:12.109Z,2.7947
2023-04-15T12:21:13.212Z,2.9789
2023-04-15T12:22:14.305Z,2.8991
2023-04-15T12:23:15.324Z,2.8808
2023-04-15T12:24:16.408Z,2.8912
2023-04-15T12:25:17.360Z,2.9326
2023-04-15T12:26:18.406Z,2.9977
2023-04-15T12:27:19.439Z,2.7515
2023-04-15T12:28:20.422Z,2.9298
2023-04-15T12:29:21.444Z,3.0242
2023-04-15T12:30:22.463Z,2.5146
2023-04-15T12:31:23.524Z,3.0960
2023-04-15T12:32:24.637Z,2.8588
2023-04-15T12:33:25.604Z,2.7641
2023-04-15T12:34:26.990Z,2.7873
2023-04-15T12:35:27.638Z,2.5481
2023-04-15T12:36:28.725Z,2.5701
2023-04-15T12:37:29.953Z,2.7652
2023-04-15T12:38:30.768Z,2.9241
2023-04-15T12:39:31.806Z,3.0130
2023-04-15T12:40:32.864Z,2.6943
2023-04-15T12:41:33.926Z,2.6950